createdAt,value
2019-05-21T00:02:28.313Z,12.40
2019-05-21T00:04:57.621Z,13.22
2019-05-21T00:07:26.996Z,14.25
2019-05-21T00:09:56.321Z,12.95
2019-05-21T00:12:25.629Z,14.47
2019-05-21T00:14:54.939Z,11.30
2019-05-21T00:17:24.309Z,12.18
2019-05-21T00:20:05.589Z,11.22
2019-05-21T00:22:35.181Z,12.05
2019-05-21T00:25:06.184Z,10.87
2019-05-21T00:27:35.478Z,11.60
2019-05-21T00:30:42.780Z,15.45
2019-05-21T00:33:50.090Z,12.88
2019-05-21T00:40:13.488Z,13.28
2019-05-21T00:45:44.476Z,10.80
2019-05-21T00:48:13.769Z,11.53
2019-05-21T00:50:43.069Z,12.13
2019-05-21T00:53:12.377Z,13.55
2019-05-21T00:55:41.680Z,12.33
2019-05-21T00:58:10.994Z,13.47
2019-05-21T01:00:40.390Z,11.73
2019-05-21T01:03:09.684Z,11.00
2019-05-21T01:05:38.990Z,11.20
2019-05-21T01:08:08.293Z,13.27
2019-05-21T01:10:37.643Z,15.75
2019-05-21T01:13:06.939Z,13.60
2019-05-21T01:15:36.272Z,11.83
2019-05-21T01:18:24.469Z,13.03
2019-05-21T01:20:53.824Z,10.65
2019-05-21T01:23:23.103Z,12.43
2019-05-21T01:25:52.401Z,12.50
2019-05-21T01:28:21.699Z,13.30
2019-05-21T01:30:51.003Z,12.20
2019-05-21T01:33:20.301Z,11.83
2019-05-21T01:36:00.857Z,14.85
2019-05-21T01:38:30.177Z,11.60
2019-05-21T01:40:59.487Z,15.45
2019-05-21T01:43:28.809Z,11.53
2019-05-21T01:45:58.097Z,14.40
2019-05-21T01:48:27.409Z,11.43
2019-05-21T01:50:56.707Z,13.17
2019-05-21T01:53:26.004Z,13.65
2019-05-21T01:55:55.316Z,12.97
2019-05-21T01:58:43.650Z,11.10
2019-05-21T02:01:12.959Z,12.40
2019-05-21T02:03:42.266Z,12.80
2019-05-21T02:06:11.611Z,14.63
2019-05-21T02:08:40.910Z,13.67
2019-05-21T02:11:10.228Z,12.00
2019-05-21T02:13:39.564Z,13.68
2019-05-21T02:16:08.875Z,15.38
2019-05-21T02:18:38.195Z,13.93
2019-05-21T02:21:07.495Z,11.30
2019-05-21T02:23:36.806Z,12.70
2019-05-21T02:26:06.140Z,13.07
2019-05-21T02:28:35.468Z,14.30
2019-05-21T02:31:05.086Z,14.30
2019-05-21T02:33:34.405Z,11.90
2019-05-21T02:36:03.721Z,12.30
2019-05-21T02:38:33.103Z,11.83
2019-05-21T02:41:02.517Z,14.07
2019-05-21T02:43:31.796Z,12.17
2019-05-21T02:46:01.122Z,13.53
2019-05-21T02:48:30.422Z,13.57
2019-05-21T02:50:59.721Z,15.67
2019-05-21T02:53:29.022Z,14.13
2019-05-21T02:55:58.313Z,12.57
2019-05-21T02:58:27.612Z,15.47
2019-05-21T03:01:17.914Z,15.70
2019-05-21T03:03:58.334Z,13.58
2019-05-21T03:06:27.626Z,13.13
2019-05-21T03:08:56.982Z,15.87
2019-05-21T03:11:26.270Z,11.93
2019-05-21T03:13:55.566Z,12.20
2019-05-21T03:16:24.885Z,11.48
2019-05-21T03:18:54.186Z,16.67
2019-05-21T03:21:23.497Z,12.58
2019-05-21T03:23:52.828Z,13.83
2019-05-21T03:26:22.137Z,11.77
2019-05-21T03:28:51.437Z,12.90
2019-05-21T03:31:20.838Z,12.73
2019-05-21T03:33:50.161Z,11.70
2019-05-21T03:36:32.630Z,13.47
2019-05-21T03:38:50.525Z,14.63
2019-05-21T03:41:19.819Z,13.55
2019-05-21T03:43:49.114Z,11.65
2019-05-21T03:46:18.405Z,13.27
2019-05-21T03:49:06.789Z,14.70
2019-05-21T03:51:36.098Z,13.10
2019-05-21T03:54:05.407Z,16.32
2019-05-21T03:56:34.722Z,14.78
2019-05-21T03:59:04.132Z,16.77
2019-05-21T04:01:33.495Z,12.18
2019-05-21T04:04:02.802Z,14.17
2019-05-21T04:06:50.307Z,12.63
2019-05-21T04:09:03.140Z,11.67
2019-05-21T04:11:32.440Z,14.00
2019-05-21T04:14:01.803Z,13.32
2019-05-21T04:16:50.020Z,12.77
2019-05-21T04:19:23.044Z,16.15
2019-05-21T04:22:11.299Z,13.33
2019-05-21T04:24:40.609Z,11.85
2019-05-21T04:27:09.912Z,13.95
2019-05-21T04:29:39.205Z,14.07
2019-05-21T04:32:08.510Z,12.45
2019-05-21T04:34:37.814Z,13.45
2019-05-21T04:37:46.471Z,12.63
2019-05-21T04:40:15.892Z,13.15
2019-05-21T04:42:45.181Z,11.73
2019-05-21T04:45:53.806Z,11.53
2019-05-21T04:48:23.111Z,12.78
2019-05-21T04:50:52.431Z,14.50
2019-05-21T04:53:21.733Z,12.63
2019-05-21T04:55:51.038Z,12.75
2019-05-21T04:58:20.381Z,15.45
2019-05-21T05:00:49.709Z,12.45
2019-05-21T05:03:19.063Z,15.43
2019-05-21T05:05:48.405Z,12.40
2019-05-21T05:08:17.811Z,11.73
2019-05-21T05:10:49.262Z,15.18
2019-05-21T05:13:18.192Z,12.05
2019-05-21T05:15:47.519Z,14.60
2019-05-21T05:18:16.834Z,11.70
2019-05-21T05:20:46.211Z,14.15
2019-05-21T05:23:15.580Z,11.73
2019-05-21T05:25:44.959Z,12.47
2019-05-21T05:28:14.285Z,13.38
2019-05-21T05:30:43.646Z,12.78
2019-05-21T05:33:12.958Z,11.85
2019-05-21T05:35:42.389Z,14.03
2019-05-21T05:38:11.724Z,11.48
2019-05-21T05:40:41.037Z,12.37
2019-05-21T05:43:10.453Z,14.38
2019-05-21T05:45:39.779Z,11.55
2019-05-21T05:48:09.080Z,11.05
2019-05-21T05:56:11.127Z,12.65
2019-05-21T05:58:40.439Z,10.90
2019-05-21T06:01:09.763Z,11.65
2019-05-21T06:03:39.118Z,11.35
2019-05-21T06:06:08.435Z,12.03
2019-05-21T06:08:37.772Z,16.57
2019-05-21T06:11:07.259Z,10.25
2019-05-21T06:13:36.577Z,10.48
2019-05-21T06:16:05.896Z,11.10
2019-05-21T06:18:35.798Z,10.08
2019-05-21T06:21:06.356Z,10.63
2019-05-21T06:23:35.651Z,9.73
2019-05-21T06:26:05.181Z,11.53
2019-05-21T06:28:34.483Z,9.43
2019-05-21T06:31:22.867Z,10.45
2019-05-21T06:33:52.285Z,9.83
2019-05-21T06:36:24.094Z,12.37
2019-05-21T06:38:53.506Z,8.88
2019-05-21T06:41:22.811Z,10.00
2019-05-21T06:46:42.023Z,13.62
2019-05-21T06:49:11.302Z,8.53
2019-05-21T06:51:40.592Z,9.40
2019-05-21T06:54:09.909Z,8.38
2019-05-21T06:56:39.253Z,11.60
2019-05-21T06:59:08.579Z,8.38
2019-05-21T07:01:37.903Z,8.88
2019-05-21T07:04:07.197Z,13.18
2019-05-21T07:06:36.501Z,7.35
2019-05-21T07:09:45.675Z,10.58
2019-05-21T07:12:14.972Z,7.40
2019-05-21T07:14:44.271Z,7.70
2019-05-21T07:17:13.538Z,7.53
2019-05-21T07:20:02.039Z,8.23
2019-05-21T07:22:32.845Z,10.13
2019-05-21T07:25:02.194Z,6.97
2019-05-21T07:27:31.467Z,9.63
2019-05-21T07:30:00.754Z,8.85
2019-05-21T07:32:30.099Z,7.87
2019-05-21T07:34:59.417Z,7.60
2019-05-21T07:37:31.057Z,7.30
2019-05-21T07:40:00.414Z,8.73
2019-05-21T07:42:29.749Z,8.78
2019-05-21T07:44:59.027Z,6.78
2019-05-21T07:47:28.313Z,6.65
2019-05-21T07:49:57.623Z,7.25
2019-05-21T07:52:26.925Z,7.65
2019-05-21T07:54:58.954Z,8.28
2019-05-21T07:57:28.273Z,7.75
2019-05-21T07:59:57.626Z,7.70
2019-05-21T08:02:26.932Z,7.35
2019-05-21T08:04:56.549Z,6.87
2019-05-21T08:07:25.927Z,6.95
2019-05-21T08:09:55.204Z,8.30
2019-05-21T08:12:38.076Z,7.45
2019-05-21T08:14:55.535Z,7.42
2019-05-21T08:17:24.828Z,8.28
2019-05-21T08:19:54.128Z,8.03
2019-05-21T08:22:23.419Z,8.20
2019-05-21T08:24:52.732Z,8.38
2019-05-21T08:27:22.059Z,8.18
2019-05-21T08:30:30.671Z,7.95
2019-05-21T08:33:02.337Z,8.85
2019-05-21T08:35:31.664Z,7.83
2019-05-21T08:38:00.950Z,7.33
2019-05-21T08:40:30.272Z,10.23
2019-05-21T08:43:01.655Z,7.80
2019-05-21T08:45:30.951Z,8.65
2019-05-21T08:48:00.288Z,7.37
2019-05-21T08:50:29.595Z,8.48
2019-05-21T08:52:58.849Z,8.23
2019-05-21T08:55:28.242Z,8.95
2019-05-21T08:58:06.830Z,8.58
2019-05-21T09:03:29.486Z,8.65
2019-05-21T09:05:58.786Z,7.87
2019-05-21T09:08:28.092Z,8.23
2019-05-21T09:10:57.395Z,10.65
2019-05-21T09:13:26.746Z,10.28
2019-05-21T09:15:56.083Z,9.15
2019-05-21T09:18:25.369Z,11.93
2019-05-21T09:23:30.022Z,7.72
2019-05-21T09:25:59.370Z,11.78
2019-05-21T09:28:28.778Z,7.85
2019-05-21T09:31:01.710Z,8.75
2019-05-21T09:33:29.226Z,8.45
2019-05-21T09:35:58.557Z,7.55
2019-05-21T09:38:27.854Z,8.65
2019-05-21T09:40:57.206Z,7.78
2019-05-21T09:43:28.681Z,8.83
2019-05-21T09:45:57.981Z,9.78
2019-05-21T09:48:27.296Z,12.23
2019-05-21T09:50:56.605Z,8.90
2019-05-21T09:53:25.897Z,8.63
2019-05-21T09:55:55.368Z,8.73
2019-05-21T09:58:43.561Z,5.80
2019-05-21T10:01:31.782Z,10.98
2019-05-21T10:04:01.070Z,6.55
2019-05-21T10:06:30.457Z,5.62
2019-05-21T10:08:59.768Z,6.47
2019-05-21T10:11:29.061Z,5.05
2019-05-21T10:13:58.374Z,5.78
2019-05-21T10:16:27.668Z,5.80
2019-05-21T10:19:16.011Z,6.37
2019-05-21T10:21:45.326Z,10.08
2019-05-21T10:24:14.698Z,9.23
2019-05-21T10:26:44.022Z,5.50
2019-05-21T10:29:13.325Z,9.15
2019-05-21T10:31:42.643Z,5.85
2019-05-21T10:34:13.450Z,7.20
2019-05-21T10:36:43.028Z,8.73
2019-05-21T10:39:12.523Z,5.03
2019-05-21T10:41:41.835Z,5.55
2019-05-21T10:44:11.145Z,7.10
2019-05-21T10:46:40.443Z,4.97
2019-05-21T10:49:09.852Z,6.70
2019-05-21T10:51:39.156Z,7.05
2019-05-21T10:54:08.630Z,5.85
2019-05-21T10:56:47.218Z,6.90
2019-05-21T10:59:09.011Z,5.08
2019-05-21T11:01:57.267Z,5.85
2019-05-21T11:07:21.305Z,9.78
2019-05-21T11:09:50.696Z,8.43
2019-05-21T11:12:20.094Z,8.75
2019-05-21T11:14:49.434Z,5.87
2019-05-21T11:17:18.762Z,5.20
2019-05-21T11:19:48.069Z,6.67
2019-05-21T11:22:17.381Z,5.97
2019-05-21T11:24:46.692Z,9.93
2019-05-21T11:27:15.994Z,5.10
2019-05-21T11:29:45.356Z,6.17
2019-05-21T11:32:14.657Z,5.20
2019-05-21T11:34:43.991Z,6.33
2019-05-21T11:37:13.322Z,4.53
2019-05-21T11:39:42.629Z,10.38
2019-05-21T11:42:12.006Z,6.30
2019-05-21T11:44:41.313Z,6.17
2019-05-21T11:47:10.614Z,7.08
2019-05-21T11:49:39.925Z,7.73
2019-05-21T11:52:09.248Z,5.05
2019-05-21T11:54:38.601Z,7.37
2019-05-21T11:57:26.792Z,2.95
2019-05-21T11:59:56.112Z,2.95
2019-05-21T12:05:00.343Z,5.72
2019-05-21T12:07:29.659Z,4.45
2019-05-21T12:09:58.976Z,2.58
2019-05-21T12:12:28.305Z,4.55
2019-05-21T12:14:57.694Z,2.00
2019-05-21T12:17:27.008Z,2.85
2019-05-21T12:19:56.341Z,4.33
2019-05-21T12:22:25.649Z,2.75
2019-05-21T12:24:55.032Z,3.25
2019-05-21T12:27:24.356Z,3.90
2019-05-21T12:29:53.673Z,4.47
2019-05-21T12:32:23.013Z,3.45
2019-05-21T12:34:52.363Z,3.47
2019-05-21T12:37:21.676Z,2.60
2019-05-21T12:43:00.004Z,3.05
2019-05-21T12:45:29.479Z,3.08
2019-05-21T12:47:58.822Z,3.50
2019-05-21T12:50:28.156Z,5.67
2019-05-21T12:52:57.492Z,2.85
2019-05-21T12:58:15.123Z,3.85
2019-05-21T13:00:44.477Z,5.10
2019-05-21T13:03:13.806Z,3.30
2019-05-21T13:05:43.171Z,4.75
2019-05-21T13:11:02.437Z,5.60
2019-05-21T13:13:31.756Z,4.58
2019-05-21T13:16:01.184Z,5.37
2019-05-21T13:18:30.622Z,7.58
2019-05-21T13:20:59.986Z,6.67
2019-05-21T13:23:29.324Z,3.95
2019-05-21T13:25:58.652Z,4.28
2019-05-21T13:28:47.046Z,5.15
2019-05-21T13:31:16.473Z,6.20
2019-05-21T13:33:45.835Z,8.15
2019-05-21T13:36:15.276Z,6.78
2019-05-21T13:38:44.744Z,3.95
2019-05-21T13:46:23.725Z,4.55
2019-05-21T13:48:53.098Z,7.20
2019-05-21T13:51:22.424Z,5.03
2019-05-21T13:53:51.755Z,6.58
2019-05-21T13:56:21.190Z,11.43
2019-05-21T14:04:41.162Z,5.17
2019-05-21T14:07:10.466Z,8.33
2019-05-21T14:09:39.798Z,4.92
2019-05-21T14:12:48.423Z,5.55
2019-05-21T14:15:17.728Z,4.70
2019-05-21T14:18:06.035Z,3.52
2019-05-21T14:20:35.351Z,3.58
2019-05-21T14:23:04.730Z,3.65
2019-05-21T14:25:34.290Z,3.05
2019-05-21T14:28:03.690Z,2.15
2019-05-21T14:30:33.010Z,2.30
2019-05-21T14:35:36.698Z,4.70
2019-05-21T14:38:06.012Z,2.92
2019-05-21T14:43:30.347Z,6.53
2019-05-21T14:45:59.643Z,3.92
2019-05-21T14:48:47.995Z,5.10
2019-05-21T14:54:25.289Z,5.35
2019-05-21T14:56:47.316Z,4.53
2019-05-21T14:59:13.526Z,2.37
2019-05-21T15:01:42.884Z,4.35
2019-05-21T15:04:12.340Z,2.37
2019-05-21T15:06:41.690Z,3.47
2019-05-21T15:09:11.033Z,1.80
2019-05-21T15:11:47.380Z,2.02
2019-05-21T15:14:16.679Z,4.30
2019-05-21T15:16:46.001Z,3.47
2019-05-21T15:19:15.353Z,2.98
2019-05-21T15:24:25.000Z,3.17
2019-05-21T15:26:54.465Z,3.17
2019-05-21T15:29:23.777Z,2.92
2019-05-21T15:31:53.133Z,5.67
2019-05-21T15:34:22.464Z,3.37
2019-05-21T15:36:51.801Z,3.62
2019-05-21T15:39:40.218Z,4.75
2019-05-21T15:47:33.008Z,2.95
2019-05-21T15:50:02.377Z,2.08
2019-05-21T15:52:31.702Z,3.80
2019-05-21T15:55:01.044Z,2.12
2019-05-21T15:57:30.405Z,2.40
2019-05-21T15:59:59.759Z,9.08
2019-05-21T16:02:29.121Z,7.80
2019-05-21T16:04:58.488Z,13.38
2019-05-21T16:07:27.805Z,3.70
2019-05-21T16:10:16.077Z,3.98
2019-05-21T16:12:45.409Z,3.20
2019-05-21T16:15:14.957Z,4.70
2019-05-21T16:17:44.290Z,4.40
2019-05-21T16:20:52.937Z,4.50
2019-05-21T16:23:22.381Z,4.90
2019-05-21T16:25:51.761Z,4.40
2019-05-21T16:28:21.145Z,6.65
2019-05-21T16:30:50.476Z,3.77
2019-05-21T16:33:19.872Z,6.37
2019-05-21T16:35:49.211Z,4.12
2019-05-21T16:38:18.664Z,4.75
2019-05-21T16:40:48.272Z,3.70
2019-05-21T16:43:17.767Z,3.85
2019-05-21T16:45:47.217Z,5.10
2019-05-21T16:48:16.561Z,5.15
2019-05-21T16:50:46.159Z,5.05
2019-05-21T16:53:15.652Z,5.65
2019-05-21T16:55:45.021Z,4.08
2019-05-21T16:58:14.507Z,5.15
2019-05-21T17:00:43.830Z,6.62
2019-05-21T17:03:13.175Z,5.25
2019-05-21T17:05:42.508Z,5.60
2019-05-21T17:11:00.367Z,6.47
2019-05-21T17:13:32.244Z,5.80
2019-05-21T17:16:01.545Z,6.00
2019-05-21T17:18:31.013Z,6.83
2019-05-21T17:21:00.360Z,5.60
2019-05-21T17:23:29.684Z,5.17
2019-05-21T17:25:59.036Z,6.80
2019-05-21T17:28:28.419Z,5.87
2019-05-21T17:31:16.699Z,5.58
2019-05-21T17:33:46.082Z,5.87
2019-05-21T17:36:15.431Z,9.80
2019-05-21T17:38:44.801Z,5.97
2019-05-21T17:43:54.670Z,7.08
2019-05-21T17:46:24.057Z,7.45
2019-05-21T17:51:49.203Z,6.77
2019-05-21T17:54:18.545Z,7.05
2019-05-21T17:56:47.947Z,7.90
2019-05-21T17:59:20.405Z,7.08
2019-05-21T18:07:01.746Z,11.78
2019-05-21T18:09:50.593Z,6.40
2019-05-21T18:15:49.190Z,9.58
2019-05-21T18:21:32.768Z,9.85
2019-05-21T18:26:52.445Z,8.65
2019-05-21T18:32:10.277Z,8.83
2019-05-21T18:34:39.715Z,9.77
2019-05-21T18:37:09.223Z,7.12
2019-05-21T18:39:38.728Z,11.15
2019-05-21T18:44:56.662Z,8.03
2019-05-21T18:47:44.979Z,7.17
2019-05-21T18:53:15.750Z,9.33
2019-05-21T18:55:45.106Z,8.48
2019-05-21T18:58:17.273Z,9.08
2019-05-21T19:01:24.904Z,11.83
2019-05-21T19:04:13.263Z,10.05
2019-05-21T19:06:42.714Z,7.72
2019-05-21T19:15:02.527Z,8.48
2019-05-21T19:17:43.758Z,10.75
2019-05-21T19:23:14.580Z,7.50
2019-05-21T19:28:19.330Z,8.55
2019-05-21T19:30:48.742Z,9.75
2019-05-21T19:33:36.941Z,9.65
2019-05-21T19:36:06.339Z,10.05
2019-05-21T19:38:37.297Z,8.78
2019-05-21T19:43:55.267Z,15.00
2019-05-21T19:46:24.704Z,8.18
2019-05-21T19:48:54.082Z,8.83
2019-05-21T19:51:44.653Z,11.45
2019-05-21T19:54:14.131Z,10.45
2019-05-21T19:59:31.906Z,11.22
2019-05-21T20:02:01.332Z,11.93
2019-05-21T20:05:10.002Z,10.82
2019-05-21T20:10:40.023Z,11.38
2019-05-21T20:13:09.460Z,10.32
2019-05-21T20:18:28.814Z,10.48
2019-05-21T20:26:48.574Z,11.12
2019-05-21T20:29:17.890Z,9.95
2019-05-21T20:32:26.524Z,10.05
2019-05-21T20:42:59.385Z,14.93
2019-05-21T21:04:54.509Z,14.23
2019-05-21T21:10:53.118Z,11.48
2019-05-21T21:13:22.550Z,10.18
2019-05-21T21:18:28.277Z,10.03
2019-05-21T21:20:57.636Z,12.70
2019-05-21T21:28:59.029Z,11.15
2019-05-21T21:34:24.059Z,13.70
2019-05-21T21:36:53.567Z,11.30
2019-05-21T21:42:13.136Z,10.20
2019-05-21T21:51:09.521Z,9.75
2019-05-21T21:56:39.881Z,12.75
2019-05-21T21:59:09.234Z,13.90
2019-05-21T22:02:20.780Z,12.50
2019-05-21T22:04:50.227Z,14.83
2019-05-21T22:07:19.736Z,16.27
2019-05-21T22:15:21.172Z,14.15
2019-05-21T22:17:50.882Z,11.40
2019-05-21T22:20:59.559Z,12.35
2019-05-21T22:26:33.198Z,11.55
2019-05-21T22:28:50.071Z,11.10
2019-05-21T22:31:19.402Z,11.88
2019-05-21T22:33:48.877Z,12.20
2019-05-21T22:47:23.154Z,14.15
2019-05-21T22:49:52.517Z,11.70
2019-05-21T22:52:21.985Z,13.68
2019-05-21T22:54:51.333Z,14.73
2019-05-21T22:57:39.662Z,16.17
2019-05-21T23:03:20.778Z,20.25
2019-05-21T23:05:50.140Z,17.23
2019-05-21T23:22:30.655Z,18.62
2019-05-21T23:24:59.997Z,19.23
2019-05-21T23:27:49.420Z,20.08
2019-05-21T23:38:51.485Z,24.55
2019-05-21T23:41:31.846Z,24.50
2019-05-21T23:44:20.650Z,22.37
2019-05-21T23:46:50.090Z,20.80
